createdAt,value
2022-11-29T00:00:10.257Z,5.43
2022-11-29T00:03:34.570Z,5.40
2022-11-29T00:06:56.721Z,5.53
2022-11-29T00:10:19.000Z,6.22
2022-11-29T00:13:41.253Z,5.65
2022-11-29T00:17:04.525Z,6.75
2022-11-29T00:20:27.711Z,5.35
2022-11-29T00:23:49.668Z,6.20
2022-11-29T00:27:11.943Z,6.03
2022-11-29T00:30:33.952Z,6.30
2022-11-29T00:33:57.299Z,6.80
2022-11-29T00:37:20.467Z,5.90
2022-11-29T00:40:42.080Z,5.72
2022-11-29T00:44:03.563Z,5.90
2022-11-29T00:47:25.510Z,6.50
2022-11-29T00:50:47.566Z,7.03
2022-11-29T00:54:11.039Z,6.07
2022-11-29T00:57:32.898Z,5.85
2022-11-29T01:00:55.758Z,5.65
2022-11-29T01:04:17.443Z,5.20
2022-11-29T01:07:39.054Z,5.13
2022-11-29T01:11:08.298Z,6.30
2022-11-29T01:14:29.966Z,6.22
2022-11-29T01:17:51.877Z,5.15
2022-11-29T01:21:16.271Z,5.70
2022-11-29T01:24:37.821Z,4.68
2022-11-29T01:28:01.293Z,5.30
2022-11-29T01:31:25.354Z,5.10
2022-11-29T01:34:47.070Z,5.70
2022-11-29T01:38:09.033Z,4.47
2022-11-29T01:41:33.343Z,8.13
2022-11-29T01:45:08.065Z,6.20
2022-11-29T01:48:34.031Z,5.40
2022-11-29T01:52:00.646Z,6.03
2022-11-29T01:55:25.025Z,6.38
2022-11-29T01:58:47.689Z,6.18
2022-11-29T02:02:15.240Z,5.85
2022-11-29T02:05:39.396Z,5.55
2022-11-29T02:09:01.360Z,6.28
2022-11-29T02:12:36.257Z,4.97
2022-11-29T02:16:05.057Z,5.22
2022-11-29T02:19:53.653Z,5.65
2022-11-29T02:24:02.954Z,4.82
2022-11-29T02:27:59.889Z,4.85
2022-11-29T02:32:19.027Z,5.38
2022-11-29T02:36:03.334Z,6.60
2022-11-29T02:40:09.829Z,6.18
2022-11-29T02:43:53.404Z,6.47
2022-11-29T02:47:28.406Z,6.00
2022-11-29T02:50:56.405Z,4.72
2022-11-29T02:54:27.766Z,4.72
2022-11-29T02:57:58.841Z,6.72
2022-11-29T03:01:28.291Z,5.38
2022-11-29T03:05:00.174Z,5.90
2022-11-29T03:08:33.260Z,5.80
2022-11-29T03:12:04.349Z,6.05
2022-11-29T03:15:32.526Z,5.13
2022-11-29T03:19:06.077Z,6.75
2022-11-29T03:22:43.139Z,5.63
2022-11-29T03:26:10.162Z,6.03
2022-11-29T03:29:39.351Z,5.07
2022-11-29T03:33:10.976Z,4.80
2022-11-29T03:36:42.441Z,6.82
2022-11-29T03:40:10.280Z,6.32
2022-11-29T03:43:40.746Z,6.95
2022-11-29T03:47:10.218Z,6.20
2022-11-29T03:50:36.385Z,6.65
2022-11-29T03:54:03.788Z,6.88
2022-11-29T03:57:35.815Z,5.88
2022-11-29T04:01:24.163Z,5.00
2022-11-29T04:05:28.527Z,5.28
2022-11-29T04:09:04.425Z,6.45
2022-11-29T04:13:04.432Z,5.68
2022-11-29T04:17:02.534Z,6.15
2022-11-29T04:21:14.785Z,6.13
2022-11-29T04:25:07.490Z,4.95
2022-11-29T04:28:54.522Z,7.75
2022-11-29T04:32:43.656Z,5.75
2022-11-29T04:40:09.459Z,5.80
2022-11-29T04:44:03.248Z,5.35
2022-11-29T04:47:47.230Z,5.57
2022-11-29T04:51:18.614Z,7.43
2022-11-29T04:54:49.131Z,6.18
2022-11-29T04:58:18.255Z,7.15
2022-11-29T05:01:54.292Z,6.55
2022-11-29T05:05:28.652Z,6.93
2022-11-29T05:09:01.032Z,6.13
2022-11-29T05:12:31.114Z,5.93
2022-11-29T05:16:19.882Z,5.90
2022-11-29T05:20:03.009Z,5.38
2022-11-29T05:23:38.644Z,6.82
2022-11-29T05:27:14.653Z,7.63
2022-11-29T05:30:55.805Z,7.05
2022-11-29T05:34:38.033Z,6.60
2022-11-29T05:38:08.524Z,7.25
2022-11-29T05:41:58.069Z,6.40
2022-11-29T05:45:26.923Z,6.75
2022-11-29T05:48:58.985Z,6.00
2022-11-29T05:52:25.690Z,6.78
2022-11-29T05:55:57.816Z,5.38
2022-11-29T05:59:23.451Z,6.05
2022-11-29T06:02:55.274Z,6.07
2022-11-29T06:06:24.106Z,6.55
2022-11-29T06:09:52.338Z,5.18
2022-11-29T06:13:23.157Z,5.65
2022-11-29T06:17:03.954Z,6.85
2022-11-29T06:20:43.513Z,6.93
2022-11-29T06:24:31.022Z,5.72
2022-11-29T06:28:10.595Z,5.93
2022-11-29T06:31:40.874Z,6.55
2022-11-29T06:35:10.572Z,7.13
2022-11-29T06:38:32.962Z,6.05
2022-11-29T06:41:55.224Z,7.43
2022-11-29T06:45:18.098Z,5.68
2022-11-29T06:48:48.899Z,5.88
2022-11-29T06:52:22.353Z,7.35
2022-11-29T06:55:53.995Z,7.95
2022-11-29T06:59:35.834Z,8.70
2022-11-29T07:03:40.141Z,6.45
2022-11-29T07:07:03.978Z,7.45
2022-11-29T07:10:28.117Z,6.18
2022-11-29T07:13:51.217Z,5.88
2022-11-29T07:17:20.660Z,7.15
2022-11-29T07:20:51.598Z,5.85
2022-11-29T07:24:31.053Z,6.32
2022-11-29T07:28:03.535Z,5.68
2022-11-29T07:31:40.210Z,7.03
2022-11-29T07:35:09.586Z,7.15
2022-11-29T07:38:52.618Z,6.20
2022-11-29T07:42:24.457Z,6.40
2022-11-29T07:45:47.131Z,6.30
2022-11-29T07:49:11.633Z,5.72
2022-11-29T07:52:34.555Z,5.22
2022-11-29T07:55:56.365Z,7.45
2022-11-29T07:59:20.242Z,7.18
2022-11-29T08:02:42.927Z,7.35
2022-11-29T08:06:05.160Z,6.30
2022-11-29T08:09:26.924Z,6.75
2022-11-29T08:12:51.683Z,5.78
2022-11-29T08:16:18.978Z,5.38
2022-11-29T08:19:41.181Z,6.85
2022-11-29T08:23:03.599Z,6.85
2022-11-29T08:26:31.249Z,5.70
2022-11-29T08:29:53.270Z,6.50
2022-11-29T08:33:16.546Z,6.63
2022-11-29T08:36:38.448Z,6.03
2022-11-29T08:40:00.334Z,5.57
2022-11-29T08:43:22.191Z,5.70
2022-11-29T08:47:01.581Z,5.53
2022-11-29T08:50:25.754Z,5.55
2022-11-29T08:53:51.764Z,5.75
2022-11-29T09:00:55.839Z,5.50
2022-11-29T09:04:17.858Z,5.57
2022-11-29T09:07:41.412Z,6.07
2022-11-29T09:11:09.244Z,5.72
2022-11-29T09:14:31.380Z,6.72
2022-11-29T09:17:53.577Z,7.55
2022-11-29T09:21:15.676Z,5.43
2022-11-29T09:24:39.206Z,5.90
2022-11-29T09:28:03.211Z,5.07
2022-11-29T09:31:27.247Z,6.25
2022-11-29T09:34:49.192Z,4.88
2022-11-29T09:38:12.734Z,4.90
2022-11-29T09:41:51.017Z,4.88
2022-11-29T09:45:18.628Z,5.50
2022-11-29T09:49:03.019Z,5.20
2022-11-29T09:52:35.640Z,5.05
2022-11-29T09:56:11.719Z,4.97
2022-11-29T09:59:39.580Z,4.50
2022-11-29T10:03:11.192Z,5.18
2022-11-29T10:06:38.955Z,5.30
2022-11-29T10:10:05.728Z,6.15
2022-11-29T10:13:32.100Z,5.03
2022-11-29T10:17:04.220Z,5.18
2022-11-29T10:20:28.697Z,5.32
2022-11-29T10:23:55.362Z,5.07
2022-11-29T10:27:21.409Z,4.65
2022-11-29T10:30:44.930Z,5.10
2022-11-29T10:34:14.830Z,6.13
2022-11-29T10:37:36.950Z,5.00
2022-11-29T10:41:04.350Z,6.07
2022-11-29T10:44:26.752Z,5.53
2022-11-29T10:47:51.058Z,5.20
2022-11-29T10:51:19.617Z,5.20
2022-11-29T10:54:48.105Z,4.60
2022-11-29T10:58:14.255Z,4.63
2022-11-29T11:01:42.395Z,5.00
2022-11-29T11:05:05.863Z,4.45
2022-11-29T11:08:29.851Z,5.18
2022-11-29T11:11:53.306Z,6.95
2022-11-29T11:15:27.110Z,5.40
2022-11-29T11:18:49.821Z,4.22
2022-11-29T11:22:22.532Z,4.28
2022-11-29T11:25:50.138Z,3.70
2022-11-29T11:29:20.018Z,5.18
2022-11-29T11:32:41.913Z,5.03
2022-11-29T11:36:07.097Z,4.70
2022-11-29T11:39:33.641Z,5.47
2022-11-29T11:42:59.087Z,5.47
2022-11-29T11:46:22.082Z,6.28
2022-11-29T11:49:50.413Z,5.18
2022-11-29T11:53:22.614Z,5.55
2022-11-29T11:56:44.911Z,5.72
2022-11-29T12:01:06.041Z,6.68
2022-11-29T12:04:36.723Z,5.85
2022-11-29T12:08:10.032Z,5.93
2022-11-29T12:11:38.756Z,5.40
2022-11-29T12:15:03.529Z,6.35
2022-11-29T12:18:35.299Z,6.47
2022-11-29T12:22:04.298Z,7.47
2022-11-29T12:25:34.946Z,7.57
2022-11-29T12:28:57.062Z,5.75
2022-11-29T12:32:44.641Z,7.78
2022-11-29T12:36:23.318Z,6.63
2022-11-29T12:39:53.671Z,7.78
2022-11-29T12:43:32.604Z,7.50
2022-11-29T12:51:06.596Z,6.97
2022-11-29T12:54:45.769Z,7.68
2022-11-29T13:01:56.567Z,6.10
2022-11-29T13:05:30.038Z,6.25
2022-11-29T13:09:27.280Z,6.15
2022-11-29T13:12:54.605Z,7.55
2022-11-29T13:16:33.469Z,5.93
2022-11-29T13:19:58.329Z,5.90
2022-11-29T13:23:45.603Z,5.72
2022-11-29T13:27:12.834Z,5.85
2022-11-29T13:30:37.298Z,6.55
2022-11-29T13:34:05.315Z,7.10
2022-11-29T13:37:35.499Z,7.38
2022-11-29T13:41:02.882Z,6.30
2022-11-29T13:44:34.003Z,6.38
2022-11-29T13:48:02.039Z,5.78
2022-11-29T13:51:34.179Z,5.38
2022-11-29T13:55:11.253Z,6.30
2022-11-29T13:58:39.229Z,7.55
2022-11-29T14:02:01.620Z,7.13
2022-11-29T14:05:29.569Z,8.05
2022-11-29T14:09:19.559Z,9.25
2022-11-29T14:12:50.381Z,7.25
2022-11-29T14:16:19.860Z,6.47
2022-11-29T14:19:42.052Z,6.30
2022-11-29T14:23:36.560Z,7.70
2022-11-29T14:27:41.116Z,7.95
2022-11-29T14:31:04.450Z,6.10
2022-11-29T14:34:43.275Z,9.02
2022-11-29T14:38:13.023Z,7.80
2022-11-29T14:41:53.654Z,6.38
2022-11-29T14:45:24.708Z,6.55
2022-11-29T14:49:00.782Z,7.20
2022-11-29T14:52:31.820Z,7.10
2022-11-29T14:56:43.947Z,8.48
2022-11-29T15:00:12.707Z,7.47
2022-11-29T15:03:38.704Z,7.82
2022-11-29T15:07:01.653Z,6.93
2022-11-29T15:10:26.917Z,7.95
2022-11-29T15:13:58.676Z,7.93
2022-11-29T15:17:32.622Z,7.82
2022-11-29T15:21:07.353Z,7.68
2022-11-29T15:24:29.493Z,7.00
2022-11-29T15:27:53.405Z,8.52
2022-11-29T15:31:19.389Z,6.32
2022-11-29T15:34:50.423Z,7.63
2022-11-29T15:38:21.952Z,9.30
2022-11-29T15:41:44.327Z,8.13
2022-11-29T15:45:27.678Z,8.30
2022-11-29T15:48:50.169Z,7.75
2022-11-29T15:52:20.890Z,8.98
2022-11-29T15:55:43.874Z,8.60
2022-11-29T15:59:14.042Z,9.38
2022-11-29T16:02:39.607Z,8.90
2022-11-29T16:06:07.368Z,8.95
2022-11-29T16:09:35.835Z,9.00
2022-11-29T16:13:00.173Z,8.13
2022-11-29T16:16:23.894Z,9.30
2022-11-29T16:19:47.101Z,7.22
2022-11-29T16:23:14.409Z,7.05
2022-11-29T16:26:41.116Z,6.57
2022-11-29T16:30:03.782Z,7.90
2022-11-29T16:33:25.974Z,6.15
2022-11-29T16:36:47.736Z,8.07
2022-11-29T16:40:22.257Z,7.72
2022-11-29T16:43:55.506Z,7.07
2022-11-29T16:47:20.181Z,10.48
2022-11-29T16:50:42.166Z,8.55
2022-11-29T16:54:25.305Z,8.30
2022-11-29T16:57:48.675Z,10.40
2022-11-29T17:01:19.081Z,8.88
2022-11-29T17:04:41.222Z,10.68
2022-11-29T17:08:03.069Z,8.80
2022-11-29T17:11:25.268Z,8.32
2022-11-29T17:14:47.468Z,6.85
2022-11-29T17:18:10.799Z,8.27
2022-11-29T17:21:33.010Z,7.45
2022-11-29T17:24:55.074Z,9.40
2022-11-29T17:28:17.073Z,7.60
2022-11-29T17:31:39.535Z,8.20
2022-11-29T17:35:03.456Z,7.28
2022-11-29T17:38:25.406Z,6.97
2022-11-29T17:41:47.803Z,7.43
2022-11-29T17:45:10.476Z,6.63
2022-11-29T17:48:33.730Z,7.65
2022-11-29T17:51:57.074Z,6.97
2022-11-29T17:55:20.765Z,7.18
2022-11-29T17:58:43.629Z,8.57
2022-11-29T18:02:05.424Z,7.10
2022-11-29T18:05:34.160Z,8.55
2022-11-29T18:08:59.049Z,7.60
2022-11-29T18:12:22.577Z,8.68
2022-11-29T18:15:44.394Z,8.00
2022-11-29T18:19:08.416Z,8.00
2022-11-29T18:22:30.216Z,8.13
2022-11-29T18:25:58.762Z,10.40
2022-11-29T18:29:20.734Z,6.85
2022-11-29T18:32:43.079Z,7.07
2022-11-29T18:36:06.552Z,7.97
2022-11-29T18:39:29.726Z,7.15
2022-11-29T18:42:52.775Z,7.07
2022-11-29T18:46:18.031Z,8.05
2022-11-29T18:49:39.886Z,7.20
2022-11-29T18:53:01.942Z,7.95
2022-11-29T18:56:25.827Z,6.75
2022-11-29T18:59:49.223Z,7.70
2022-11-29T19:03:11.310Z,7.43
2022-11-29T19:06:39.314Z,7.32
2022-11-29T19:10:01.767Z,6.60
2022-11-29T19:13:24.044Z,7.20
2022-11-29T19:16:49.300Z,8.52
2022-11-29T19:20:12.997Z,9.10
2022-11-29T19:23:35.226Z,8.40
2022-11-29T19:26:57.412Z,8.63
2022-11-29T19:30:19.218Z,7.90
2022-11-29T19:33:44.860Z,7.43
2022-11-29T19:37:09.429Z,7.57
2022-11-29T19:40:31.970Z,6.72
2022-11-29T19:43:54.537Z,6.90
2022-11-29T19:47:16.743Z,7.97
2022-11-29T19:50:40.303Z,8.45
2022-11-29T19:54:03.677Z,7.25
2022-11-29T19:57:25.457Z,7.70
2022-11-29T20:00:47.872Z,7.88
2022-11-29T20:04:10.945Z,8.10
2022-11-29T20:07:34.361Z,7.25
2022-11-29T20:10:56.822Z,8.20
2022-11-29T20:14:19.370Z,10.68
2022-11-29T20:17:41.499Z,7.75
2022-11-29T20:21:07.489Z,9.20
2022-11-29T20:24:36.606Z,7.13
2022-11-29T20:28:01.171Z,7.10
2022-11-29T20:31:23.505Z,8.02
2022-11-29T20:34:45.964Z,7.80
2022-11-29T20:38:20.229Z,7.47
2022-11-29T20:41:55.214Z,6.80
2022-11-29T20:45:18.219Z,7.57
2022-11-29T20:48:40.729Z,7.38
2022-11-29T20:52:06.706Z,7.57
2022-11-29T20:55:28.575Z,6.30
2022-11-29T20:58:52.239Z,5.93
2022-11-29T21:02:14.150Z,6.72
2022-11-29T21:05:38.783Z,6.20
2022-11-29T21:09:00.732Z,6.60
2022-11-29T21:12:22.906Z,6.82
2022-11-29T21:15:47.551Z,7.03
2022-11-29T21:19:19.852Z,6.60
2022-11-29T21:22:54.070Z,7.05
2022-11-29T21:26:21.576Z,6.80
2022-11-29T21:29:43.972Z,6.35
2022-11-29T21:33:08.107Z,6.50
2022-11-29T21:36:30.507Z,8.32
2022-11-29T21:39:52.960Z,7.00
2022-11-29T21:43:17.082Z,6.60
2022-11-29T21:46:38.847Z,9.27
2022-11-29T21:50:02.324Z,6.70
2022-11-29T21:53:24.447Z,6.82
2022-11-29T21:56:46.302Z,6.18
2022-11-29T22:00:09.707Z,5.57
2022-11-29T22:03:31.641Z,6.65
2022-11-29T22:06:55.342Z,6.20
2022-11-29T22:10:17.396Z,7.88
2022-11-29T22:14:01.166Z,6.97
2022-11-29T22:17:23.094Z,5.90
2022-11-29T22:20:47.330Z,6.32
2022-11-29T22:24:11.589Z,7.40
2022-11-29T22:27:33.599Z,8.40
2022-11-29T22:31:01.843Z,7.35
2022-11-29T22:34:25.280Z,6.90
2022-11-29T22:37:47.335Z,6.47
2022-11-29T22:41:13.031Z,7.30
2022-11-29T22:44:35.235Z,6.40
2022-11-29T22:47:56.923Z,7.30
2022-11-29T22:51:20.319Z,6.82
2022-11-29T22:54:42.354Z,8.57
2022-11-29T22:58:05.671Z,7.05
2022-11-29T23:01:28.977Z,5.97
2022-11-29T23:04:50.759Z,5.97
2022-11-29T23:08:12.277Z,5.55
2022-11-29T23:11:34.333Z,6.05
2022-11-29T23:14:58.107Z,5.65
2022-11-29T23:18:20.538Z,6.45
2022-11-29T23:21:44.768Z,6.45
2022-11-29T23:25:07.667Z,5.90
2022-11-29T23:28:30.503Z,6.32
2022-11-29T23:31:53.748Z,5.47
2022-11-29T23:35:15.690Z,6.47
2022-11-29T23:38:39.225Z,6.13
2022-11-29T23:42:01.405Z,5.88
2022-11-29T23:45:23.504Z,6.43
2022-11-29T23:48:47.221Z,7.28
2022-11-29T23:52:08.973Z,6.35
2022-11-29T23:55:30.653Z,8.05
2022-11-29T23:58:52.340Z,5.95
